Terminal Aerodrome Forecast
Issued by NWS Grand Junction, CO

Home | Current Version | Previous Version | Text Only | Print | Product List | Glossary On
Versions: 1 2 3 4 5 6 7 8 9 10 11 12 13 14 15 16 17 18 19 20 21
000
FTUS45 KGJT 221125
TAFGJT
TAF
KGJT 221125Z 2212/2312 VRB03KT P6SM SKC
     FM221900 13005KT P6SM BKN200
     FM230100 16005KT P6SM VCSH OVC050
     FM230800 14008KT P6SM -SHSN OVC030=

USA.gov is the U.S. government's official web portal to all federal, state and local government web resources and services.